createdAt,value
2018-07-23T00:01:20.866Z,99.90
2018-07-23T00:03:49.033Z,99.90
2018-07-23T00:06:17.248Z,99.90
2018-07-23T00:08:45.446Z,99.90
2018-07-23T00:11:13.644Z,99.90
2018-07-23T00:13:42.065Z,99.90
2018-07-23T00:16:10.284Z,99.90
2018-07-23T00:18:38.472Z,99.90
2018-07-23T00:21:06.653Z,99.90
2018-07-23T00:23:34.797Z,99.90
2018-07-23T00:26:02.993Z,99.90
2018-07-23T00:28:32.085Z,99.90
2018-07-23T00:31:00.348Z,99.90
2018-07-23T00:33:28.535Z,99.90
2018-07-23T00:35:56.722Z,99.90
2018-07-23T00:38:24.905Z,99.90
2018-07-23T00:40:53.080Z,99.90
2018-07-23T00:43:21.308Z,99.90
2018-07-23T00:45:49.729Z,99.90
2018-07-23T00:48:17.909Z,99.90
2018-07-23T00:53:14.018Z,99.90
2018-07-23T00:55:42.273Z,99.90
2018-07-23T00:58:10.474Z,99.90
2018-07-23T01:00:38.700Z,99.90
2018-07-23T01:03:07.441Z,99.90
2018-07-23T01:05:38.156Z,99.90
2018-07-23T01:08:06.667Z,99.90
2018-07-23T01:10:34.830Z,99.90
2018-07-23T01:13:02.994Z,99.90
2018-07-23T01:15:31.190Z,99.90
2018-07-23T01:17:59.337Z,99.90
2018-07-23T01:20:28.815Z,99.90
2018-07-23T01:22:57.000Z,99.90
2018-07-23T01:25:27.046Z,99.90
2018-07-23T01:27:55.641Z,99.90
2018-07-23T01:30:23.884Z,99.90
2018-07-23T01:32:52.066Z,99.90
2018-07-23T01:35:20.267Z,99.90
2018-07-23T01:37:48.440Z,99.90
2018-07-23T01:40:16.622Z,99.90
2018-07-23T01:42:44.826Z,99.90
2018-07-23T01:45:13.031Z,99.90
2018-07-23T01:47:41.201Z,99.90
2018-07-23T01:50:09.375Z,99.90
2018-07-23T01:52:38.309Z,99.90
2018-07-23T01:55:06.789Z,99.90
2018-07-23T01:57:35.100Z,99.90
2018-07-23T02:00:03.375Z,99.90
2018-07-23T02:02:31.614Z,99.90
2018-07-23T02:04:59.824Z,99.90
2018-07-23T02:07:28.017Z,99.90
2018-07-23T02:09:56.171Z,99.90
2018-07-23T02:12:24.349Z,99.90
2018-07-23T02:14:52.552Z,99.90
2018-07-23T02:17:20.757Z,99.90
2018-07-23T02:19:48.964Z,99.90
2018-07-23T02:22:17.297Z,99.90
2018-07-23T02:24:45.497Z,99.90
2018-07-23T02:27:13.653Z,99.90
2018-07-23T02:29:41.821Z,99.90
2018-07-23T02:32:10.338Z,99.90
2018-07-23T02:34:38.478Z,99.90
2018-07-23T02:37:06.954Z,99.90
2018-07-23T02:39:35.965Z,99.90
2018-07-23T02:42:04.186Z,99.90
2018-07-23T02:44:32.420Z,99.90
2018-07-23T02:47:00.609Z,99.90
2018-07-23T02:49:28.770Z,99.90
2018-07-23T02:51:56.978Z,99.90
2018-07-23T02:54:25.269Z,99.90
2018-07-23T02:56:53.428Z,99.90
2018-07-23T02:59:22.470Z,99.90
2018-07-23T03:01:51.211Z,99.90
2018-07-23T03:04:19.396Z,99.90
2018-07-23T03:06:47.584Z,99.90
2018-07-23T03:09:16.034Z,99.90
2018-07-23T03:11:44.174Z,99.90
2018-07-23T03:14:12.382Z,99.90
2018-07-23T03:16:40.582Z,99.90
2018-07-23T03:19:08.874Z,99.90
2018-07-23T03:21:37.122Z,99.90
2018-07-23T03:24:05.222Z,99.90
2018-07-23T03:26:33.414Z,99.90
2018-07-23T03:29:01.612Z,99.90
2018-07-23T03:31:29.810Z,99.90
2018-07-23T03:33:58.030Z,99.90
2018-07-23T03:36:26.232Z,99.90
2018-07-23T03:38:54.386Z,99.90
2018-07-23T03:41:22.582Z,99.90
2018-07-23T03:43:50.774Z,99.90
2018-07-23T03:46:18.973Z,99.90
2018-07-23T03:48:47.162Z,99.90
2018-07-23T03:51:15.399Z,99.90
2018-07-23T03:53:43.752Z,99.90
2018-07-23T03:56:11.959Z,99.90
2018-07-23T03:58:40.898Z,99.90
2018-07-23T04:01:09.116Z,99.90
2018-07-23T04:03:37.350Z,99.90
2018-07-23T04:06:06.685Z,99.90
2018-07-23T04:08:34.924Z,99.90
2018-07-23T04:11:03.141Z,99.90
2018-07-23T04:13:31.415Z,99.90
2018-07-23T04:15:59.725Z,99.90
2018-07-23T04:18:27.902Z,99.90
2018-07-23T04:20:56.111Z,99.90
2018-07-23T04:23:24.358Z,99.90
2018-07-23T04:25:52.559Z,99.90
2018-07-23T04:28:20.757Z,99.90
2018-07-23T04:30:48.957Z,99.90
2018-07-23T04:33:17.138Z,99.90
2018-07-23T04:35:45.389Z,99.90
2018-07-23T04:38:13.585Z,99.90
2018-07-23T04:40:42.190Z,99.90
2018-07-23T04:43:10.392Z,99.90
2018-07-23T04:45:38.926Z,99.90
2018-07-23T04:48:07.249Z,99.90
2018-07-23T04:50:35.420Z,99.90
2018-07-23T04:53:03.598Z,99.90
2018-07-23T04:55:31.801Z,99.90
2018-07-23T04:58:00.959Z,99.90
2018-07-23T05:00:29.685Z,99.90
2018-07-23T05:02:57.977Z,99.90
2018-07-23T05:05:26.182Z,99.90
2018-07-23T05:07:54.430Z,99.90
2018-07-23T05:10:22.710Z,99.90
2018-07-23T05:12:50.953Z,99.90
2018-07-23T05:15:19.253Z,99.90
2018-07-23T05:17:47.476Z,99.90
2018-07-23T05:20:15.646Z,99.90
2018-07-23T05:22:43.875Z,99.90
2018-07-23T05:25:12.437Z,99.90
2018-07-23T05:27:40.943Z,99.90
2018-07-23T05:30:09.157Z,99.90
2018-07-23T05:32:37.370Z,99.90
2018-07-23T05:35:05.725Z,99.90
2018-07-23T05:37:33.928Z,99.90
2018-07-23T05:40:02.426Z,99.90
2018-07-23T05:42:30.744Z,99.90
2018-07-23T05:44:58.953Z,99.90
2018-07-23T05:47:27.767Z,99.90
2018-07-23T05:49:56.046Z,99.90
2018-07-23T05:52:24.226Z,99.90
2018-07-23T05:54:52.546Z,99.90
2018-07-23T05:57:20.758Z,99.90
2018-07-23T05:59:49.271Z,99.90
2018-07-23T06:02:18.347Z,99.90
2018-07-23T06:04:46.570Z,99.90
2018-07-23T06:07:14.789Z,99.90
2018-07-23T06:09:43.141Z,99.90
2018-07-23T06:12:12.433Z,99.90
2018-07-23T06:14:40.701Z,99.90
2018-07-23T06:17:08.872Z,99.90
2018-07-23T06:19:37.117Z,99.90
2018-07-23T06:22:05.529Z,99.90
2018-07-23T06:24:33.746Z,99.90
2018-07-23T06:27:01.943Z,99.90
2018-07-23T06:29:30.138Z,99.90
2018-07-23T06:31:58.450Z,99.90
2018-07-23T06:34:26.709Z,99.90
2018-07-23T06:36:54.875Z,99.90
2018-07-23T06:39:23.183Z,99.90
2018-07-23T06:41:51.409Z,99.90
2018-07-23T06:44:19.572Z,99.90
2018-07-23T06:46:47.756Z,99.90
2018-07-23T06:49:15.985Z,99.90
2018-07-23T06:51:44.301Z,99.90
2018-07-23T06:54:12.499Z,99.90
2018-07-23T06:56:40.983Z,99.90
2018-07-23T06:59:09.160Z,99.90
2018-07-23T07:01:37.861Z,99.90
2018-07-23T07:04:06.050Z,99.90
2018-07-23T07:06:34.250Z,99.90
2018-07-23T07:09:02.544Z,99.90
2018-07-23T07:11:30.752Z,99.90
2018-07-23T07:13:58.920Z,99.90
2018-07-23T07:16:27.126Z,99.90
2018-07-23T07:18:56.259Z,99.90
2018-07-23T07:21:24.420Z,99.90
2018-07-23T07:23:52.635Z,99.90
2018-07-23T07:26:20.852Z,99.90
2018-07-23T07:28:50.993Z,99.90
2018-07-23T07:31:19.206Z,99.90
2018-07-23T07:33:47.707Z,99.90
2018-07-23T07:36:15.897Z,99.90
2018-07-23T07:38:44.097Z,99.90
2018-07-23T07:41:12.330Z,99.90
2018-07-23T07:43:40.520Z,99.90
2018-07-23T07:46:08.776Z,99.90
2018-07-23T07:48:37.172Z,99.90
2018-07-23T07:51:05.382Z,99.90
2018-07-23T07:53:33.561Z,99.90
2018-07-23T07:56:01.810Z,99.90
2018-07-23T07:58:30.377Z,99.90
2018-07-23T08:00:58.583Z,99.90
2018-07-23T08:03:26.797Z,99.90
2018-07-23T08:05:54.977Z,99.90
2018-07-23T08:08:23.184Z,99.90
2018-07-23T08:10:51.357Z,99.90
2018-07-23T08:13:19.565Z,99.90
2018-07-23T08:15:47.836Z,99.90
2018-07-23T08:18:16.429Z,99.90
2018-07-23T08:20:45.278Z,99.90
2018-07-23T08:23:13.446Z,99.90
2018-07-23T08:25:41.903Z,99.90
2018-07-23T08:28:10.110Z,99.90
2018-07-23T08:30:38.274Z,99.90
2018-07-23T08:33:06.447Z,99.90
2018-07-23T08:35:34.666Z,99.90
2018-07-23T08:38:02.873Z,99.90
2018-07-23T08:40:31.085Z,99.90
2018-07-23T08:42:59.382Z,99.90
2018-07-23T08:45:27.515Z,99.90
2018-07-23T08:47:56.615Z,99.90
2018-07-23T08:50:24.852Z,99.90
2018-07-23T08:52:53.037Z,99.90
2018-07-23T08:55:21.273Z,99.90
2018-07-23T08:57:49.525Z,99.90
2018-07-23T09:00:17.741Z,99.90
2018-07-23T09:02:45.930Z,99.90
2018-07-23T09:05:14.122Z,99.90
2018-07-23T09:07:42.322Z,99.90
2018-07-23T09:10:10.608Z,99.90
2018-07-23T09:12:39.740Z,99.90
2018-07-23T09:15:07.914Z,99.90
2018-07-23T09:17:37.236Z,99.90
2018-07-23T09:20:05.414Z,99.90
2018-07-23T09:22:34.335Z,99.90
2018-07-23T09:25:02.681Z,99.90
2018-07-23T09:27:30.879Z,99.90
2018-07-23T09:29:59.105Z,99.90
2018-07-23T09:32:27.721Z,99.30
2018-07-23T09:34:56.505Z,97.70
2018-07-23T09:37:25.143Z,98.00
2018-07-23T09:39:54.198Z,97.50
2018-07-23T09:42:22.666Z,97.80
2018-07-23T09:44:50.869Z,97.50
2018-07-23T09:47:19.090Z,96.70
2018-07-23T09:49:47.290Z,96.70
2018-07-23T09:52:15.483Z,96.30
2018-07-23T09:54:43.690Z,95.60
2018-07-23T09:57:11.890Z,95.90
2018-07-23T09:59:40.082Z,96.60
2018-07-23T10:02:08.278Z,96.70
2018-07-23T10:04:36.493Z,96.70
2018-07-23T10:07:04.923Z,95.90
2018-07-23T10:09:33.173Z,95.60
2018-07-23T10:12:01.335Z,95.20
2018-07-23T10:14:29.557Z,94.10
2018-07-23T10:16:58.556Z,95.10
2018-07-23T10:19:26.718Z,94.10
2018-07-23T10:21:55.245Z,93.10
2018-07-23T10:24:23.461Z,92.70
2018-07-23T10:26:51.877Z,93.10
2018-07-23T10:29:22.034Z,93.20
2018-07-23T10:31:50.206Z,92.80
2018-07-23T10:34:18.406Z,92.90
2018-07-23T10:36:46.641Z,91.60
2018-07-23T10:39:14.819Z,91.40
2018-07-23T10:41:43.021Z,91.70
2018-07-23T10:44:11.222Z,91.80
2018-07-23T10:46:39.393Z,90.20
2018-07-23T10:49:07.657Z,89.10
2018-07-23T10:51:35.849Z,90.10
2018-07-23T10:54:04.093Z,87.80
2018-07-23T10:56:32.341Z,86.60
2018-07-23T10:59:00.470Z,84.90
2018-07-23T11:01:28.666Z,83.20
2018-07-23T11:03:56.849Z,83.90
2018-07-23T11:06:25.018Z,82.00
2018-07-23T11:08:53.478Z,83.60
2018-07-23T11:11:21.693Z,82.40
2018-07-23T11:13:50.102Z,81.00
2018-07-23T11:16:18.277Z,79.10
2018-07-23T11:18:46.477Z,80.20
2018-07-23T11:23:42.618Z,83.80
2018-07-23T11:26:10.868Z,83.70
2018-07-23T11:28:38.970Z,79.90
2018-07-23T11:31:07.261Z,80.60
2018-07-23T11:33:35.478Z,81.40
2018-07-23T11:36:03.872Z,79.40
2018-07-23T11:38:32.043Z,82.00
2018-07-23T11:41:00.494Z,80.30
2018-07-23T11:43:29.281Z,81.90
2018-07-23T11:45:57.485Z,80.90
2018-07-23T11:48:25.678Z,79.60
2018-07-23T11:50:54.100Z,79.80
2018-07-23T11:53:22.377Z,80.50
2018-07-23T11:55:50.506Z,78.50
2018-07-23T11:58:18.717Z,82.20
2018-07-23T12:00:47.237Z,77.70
2018-07-23T12:03:15.415Z,77.70
2018-07-23T12:05:43.649Z,78.60
2018-07-23T12:08:11.872Z,75.30
2018-07-23T12:10:40.119Z,77.30
2018-07-23T12:13:08.668Z,75.60
2018-07-23T12:15:37.219Z,72.20
2018-07-23T12:18:05.764Z,72.50
2018-07-23T12:20:34.197Z,75.80
2018-07-23T12:23:02.577Z,74.80
2018-07-23T12:25:30.785Z,73.40
2018-07-23T12:27:59.279Z,73.40
2018-07-23T12:30:27.569Z,72.00
2018-07-23T12:32:55.745Z,73.50
2018-07-23T12:35:23.973Z,73.60
2018-07-23T12:40:20.118Z,74.30
2018-07-23T12:45:16.567Z,73.10
2018-07-23T12:47:44.836Z,74.50
2018-07-23T12:50:12.994Z,72.70
2018-07-23T12:52:41.297Z,72.60
2018-07-23T12:55:09.804Z,71.60
2018-07-23T12:57:38.460Z,72.00
2018-07-23T13:02:35.230Z,73.20
2018-07-23T13:05:03.490Z,71.60
2018-07-23T13:07:32.212Z,71.30
2018-07-23T13:10:00.411Z,71.50
2018-07-23T13:12:29.034Z,70.60
2018-07-23T13:14:57.990Z,71.40
2018-07-23T13:17:26.358Z,71.40
2018-07-23T13:19:54.678Z,70.90
2018-07-23T13:24:50.813Z,69.90
2018-07-23T13:27:19.015Z,69.20
2018-07-23T13:29:47.196Z,71.70
2018-07-23T13:32:15.447Z,68.80
2018-07-23T13:34:43.864Z,69.70
2018-07-23T13:37:12.078Z,70.20
2018-07-23T13:39:40.249Z,70.60
2018-07-23T13:42:08.487Z,71.10
2018-07-23T13:44:37.102Z,70.00
2018-07-23T13:47:05.306Z,68.50
2018-07-23T13:49:33.677Z,67.00
2018-07-23T13:52:02.464Z,67.20
2018-07-23T13:54:30.682Z,67.40
2018-07-23T13:56:58.894Z,68.50
2018-07-23T13:59:27.080Z,66.40
2018-07-23T14:01:55.297Z,65.60
2018-07-23T14:04:23.513Z,65.80
2018-07-23T14:06:52.239Z,65.30
2018-07-23T14:09:20.435Z,66.10
2018-07-23T14:11:49.303Z,63.30
2018-07-23T14:14:17.550Z,64.50
2018-07-23T14:16:45.725Z,64.40
2018-07-23T14:19:13.980Z,61.80
2018-07-23T14:21:42.160Z,60.60
2018-07-23T14:24:10.345Z,60.40
2018-07-23T14:26:38.730Z,61.10
2018-07-23T14:29:06.903Z,60.50
2018-07-23T14:31:35.350Z,60.90
2018-07-23T14:34:03.523Z,59.80
2018-07-23T14:36:31.706Z,59.10
2018-07-23T14:38:59.895Z,58.80
2018-07-23T14:41:28.102Z,60.60
2018-07-23T14:43:56.324Z,60.30
2018-07-23T14:46:24.479Z,59.70
2018-07-23T14:48:53.309Z,58.00
2018-07-23T14:51:22.139Z,58.60
2018-07-23T14:53:50.289Z,59.20
2018-07-23T14:56:18.466Z,59.50
2018-07-23T14:58:46.653Z,61.50
2018-07-23T15:01:14.881Z,60.70
2018-07-23T15:03:43.074Z,59.00
2018-07-23T15:06:11.286Z,57.50
2018-07-23T15:11:07.441Z,58.50
2018-07-23T15:13:35.662Z,57.60
2018-07-23T15:16:03.866Z,58.40
2018-07-23T15:18:32.097Z,55.50
2018-07-23T15:21:00.279Z,55.40
2018-07-23T15:23:28.534Z,54.70
2018-07-23T15:25:56.778Z,54.10
2018-07-23T15:28:24.996Z,54.20
2018-07-23T15:30:53.194Z,55.30
2018-07-23T15:33:21.378Z,54.10
2018-07-23T15:35:49.561Z,53.80
2018-07-23T15:40:45.701Z,55.00
2018-07-23T15:43:13.954Z,54.60
2018-07-23T15:45:42.365Z,56.50
2018-07-23T15:48:10.314Z,57.90
2018-07-23T15:50:38.659Z,58.10
2018-07-23T15:53:06.882Z,57.30
2018-07-23T15:55:35.096Z,58.90
2018-07-23T15:58:03.359Z,59.60
2018-07-23T16:00:31.617Z,60.30
2018-07-23T16:02:59.880Z,58.60
2018-07-23T16:05:28.003Z,57.90
2018-07-23T16:07:56.218Z,56.70
2018-07-23T16:10:24.476Z,56.10
2018-07-23T16:12:52.728Z,56.90
2018-07-23T16:15:20.961Z,57.40
2018-07-23T16:17:49.258Z,56.50
2018-07-23T16:20:17.471Z,55.60
2018-07-23T16:22:45.650Z,56.50
2018-07-23T16:25:13.818Z,57.00
2018-07-23T16:27:41.998Z,57.30
2018-07-23T16:30:10.301Z,57.80
2018-07-23T16:32:38.603Z,56.90
2018-07-23T16:35:08.293Z,56.60
2018-07-23T16:37:36.452Z,57.90
2018-07-23T16:40:05.560Z,57.50
2018-07-23T16:42:33.790Z,57.30
2018-07-23T16:45:02.013Z,57.00
2018-07-23T16:47:30.353Z,57.70
2018-07-23T16:49:58.538Z,57.50
2018-07-23T16:52:26.718Z,57.20
2018-07-23T16:54:54.944Z,57.60
2018-07-23T16:57:23.149Z,57.40
2018-07-23T17:02:26.049Z,60.30
2018-07-23T17:04:54.228Z,62.20
2018-07-23T17:07:22.413Z,65.00
2018-07-23T17:09:50.601Z,66.10
2018-07-23T17:12:18.857Z,67.70
2018-07-23T17:14:47.001Z,68.50
2018-07-23T17:17:15.229Z,68.20
2018-07-23T17:19:45.329Z,66.60
2018-07-23T17:22:13.473Z,65.50
2018-07-23T17:24:41.685Z,66.60
2018-07-23T17:27:09.868Z,67.40
2018-07-23T17:29:38.051Z,68.30
2018-07-23T17:34:41.076Z,70.00
2018-07-23T17:37:09.253Z,71.20
2018-07-23T17:39:37.387Z,71.70
2018-07-23T17:42:05.666Z,71.80
2018-07-23T17:44:33.861Z,72.80
2018-07-23T17:47:02.029Z,73.70
2018-07-23T17:49:30.255Z,74.40
2018-07-23T17:51:58.441Z,75.30
2018-07-23T17:54:26.656Z,76.60
2018-07-23T17:56:54.863Z,75.40
2018-07-23T17:59:23.477Z,76.00
2018-07-23T18:01:51.664Z,76.10
2018-07-23T18:04:19.860Z,76.90
2018-07-23T18:06:48.137Z,76.60
2018-07-23T18:09:16.309Z,77.60
2018-07-23T18:11:44.553Z,77.80
2018-07-23T18:14:12.745Z,77.90
2018-07-23T18:16:41.140Z,79.10
2018-07-23T18:19:09.385Z,79.10
2018-07-23T18:21:37.528Z,80.00
2018-07-23T18:24:05.984Z,80.10
2018-07-23T18:26:34.444Z,80.30
2018-07-23T18:29:02.728Z,81.00
2018-07-23T18:31:31.200Z,80.70
2018-07-23T18:33:59.917Z,81.10
2018-07-23T18:36:28.125Z,81.40
2018-07-23T18:38:56.330Z,82.00
2018-07-23T18:41:24.690Z,82.60
2018-07-23T18:43:52.857Z,83.00
2018-07-23T18:46:21.071Z,83.30
2018-07-23T18:49:38.996Z,84.20
2018-07-23T18:52:07.326Z,84.60
2018-07-23T18:54:35.961Z,85.20
2018-07-23T18:57:05.485Z,85.80
2018-07-23T18:59:33.795Z,86.10
2018-07-23T19:02:02.957Z,86.20
2018-07-23T19:04:31.206Z,87.90
2018-07-23T19:06:59.387Z,87.80
2018-07-23T19:09:29.932Z,88.30
2018-07-23T19:11:58.821Z,88.50
2018-07-23T19:14:27.044Z,89.70
2018-07-23T19:16:56.189Z,89.80
2018-07-23T19:19:24.386Z,90.10
2018-07-23T19:21:52.569Z,90.40
2018-07-23T19:24:20.737Z,90.60
2018-07-23T19:26:48.965Z,90.80
2018-07-23T19:29:17.118Z,91.10
2018-07-23T19:31:45.583Z,91.60
2018-07-23T19:34:13.801Z,91.90
2018-07-23T19:36:41.981Z,92.10
2018-07-23T19:39:12.424Z,92.60
2018-07-23T19:41:40.675Z,92.80
2018-07-23T19:44:09.182Z,93.20
2018-07-23T19:46:37.419Z,93.60
2018-07-23T19:49:05.573Z,93.90
2018-07-23T19:51:33.970Z,94.30
2018-07-23T19:54:02.246Z,94.50
2018-07-23T19:56:30.445Z,94.90
2018-07-23T19:58:58.636Z,95.30
2018-07-23T20:01:26.972Z,95.80
2018-07-23T20:03:55.123Z,96.40
2018-07-23T20:06:25.545Z,97.00
2018-07-23T20:08:55.354Z,98.20
2018-07-23T20:11:24.331Z,99.90
2018-07-23T20:13:52.553Z,99.90
2018-07-23T20:16:20.807Z,99.90
2018-07-23T20:18:49.142Z,99.90
2018-07-23T20:21:17.333Z,99.90
2018-07-23T20:23:45.686Z,99.90
2018-07-23T20:26:14.276Z,99.90
2018-07-23T20:28:42.850Z,99.90
2018-07-23T20:31:11.045Z,99.90
2018-07-23T20:33:39.240Z,99.90
2018-07-23T20:36:07.582Z,99.90
2018-07-23T20:38:36.698Z,99.90
2018-07-23T20:41:04.967Z,99.90
2018-07-23T20:43:33.761Z,99.90
2018-07-23T20:46:02.257Z,99.90
2018-07-23T20:48:30.501Z,99.90
2018-07-23T20:50:59.084Z,99.90
2018-07-23T20:53:27.537Z,99.90
2018-07-23T20:55:55.741Z,99.90
2018-07-23T20:58:24.262Z,99.90
2018-07-23T21:00:52.518Z,99.90
2018-07-23T21:03:20.738Z,99.90
2018-07-23T21:05:48.981Z,99.90
2018-07-23T21:08:17.198Z,99.90
2018-07-23T21:10:46.290Z,99.90
2018-07-23T21:13:14.473Z,99.90
2018-07-23T21:15:42.653Z,99.90
2018-07-23T21:18:10.874Z,99.90
2018-07-23T21:20:39.138Z,99.90
2018-07-23T21:23:07.485Z,99.90
2018-07-23T21:25:36.211Z,99.90
2018-07-23T21:28:04.854Z,99.90
2018-07-23T21:30:33.293Z,99.90
2018-07-23T21:33:02.535Z,99.90
2018-07-23T21:35:30.777Z,99.90
2018-07-23T21:37:59.006Z,99.90
2018-07-23T21:40:27.284Z,99.90
2018-07-23T21:42:55.548Z,99.90
2018-07-23T21:45:23.799Z,99.90
2018-07-23T21:47:52.005Z,99.90
2018-07-23T21:50:20.182Z,99.90
2018-07-23T21:52:48.425Z,99.90
2018-07-23T21:55:16.596Z,99.90
2018-07-23T21:57:44.803Z,99.90
2018-07-23T22:00:14.575Z,99.90
2018-07-23T22:02:42.813Z,99.90
2018-07-23T22:05:11.418Z,99.90
2018-07-23T22:07:39.864Z,99.90
2018-07-23T22:10:09.079Z,99.90
2018-07-23T22:12:38.161Z,99.90
2018-07-23T22:15:08.991Z,99.90
2018-07-23T22:17:38.093Z,99.90
2018-07-23T22:20:06.977Z,99.90
2018-07-23T22:22:35.182Z,99.90
2018-07-23T22:25:04.709Z,99.90
2018-07-23T22:27:32.965Z,99.90
2018-07-23T22:30:01.371Z,99.90
2018-07-23T22:32:29.508Z,99.90
2018-07-23T22:34:57.727Z,99.90
2018-07-23T22:37:25.941Z,99.90
2018-07-23T22:39:54.134Z,99.90
2018-07-23T22:42:23.277Z,99.90
2018-07-23T22:44:51.901Z,99.90
2018-07-23T22:47:20.118Z,99.90
2018-07-23T22:49:48.317Z,99.90
2018-07-23T22:52:17.195Z,99.90
2018-07-23T22:54:46.775Z,99.90
2018-07-23T22:57:14.941Z,99.90
2018-07-23T23:02:11.113Z,99.90
2018-07-23T23:04:39.302Z,99.90
2018-07-23T23:07:07.720Z,99.90
2018-07-23T23:09:35.873Z,99.90
2018-07-23T23:12:04.165Z,99.90
2018-07-23T23:14:32.360Z,99.90
2018-07-23T23:17:01.718Z,99.90
2018-07-23T23:19:30.142Z,99.90
2018-07-23T23:21:58.789Z,99.90
2018-07-23T23:24:27.002Z,99.90
2018-07-23T23:26:55.192Z,99.90
2018-07-23T23:29:23.703Z,99.90
2018-07-23T23:31:56.537Z,99.90
2018-07-23T23:36:52.697Z,99.90
2018-07-23T23:39:20.914Z,99.90
2018-07-23T23:41:49.115Z,99.90
2018-07-23T23:44:20.912Z,99.90
2018-07-23T23:46:49.213Z,99.90
2018-07-23T23:49:17.425Z,99.90
2018-07-23T23:51:45.603Z,99.90
2018-07-23T23:54:13.789Z,99.90
2018-07-23T23:56:41.969Z,99.90
2018-07-23T23:59:10.157Z,99.90
